Time;durP1;ratioP1;P1;durP2;ratioP2;P2;SDS_P1;SDS_P2;PMS_P1;PMS_P2;Temp;Humidity;BMP_temperature;BMP_pressure;BME280_temperature;BME280_humidity;BME280_pressure;Samples;Min_cycle;Max_cycle;Signal;HPM_P1;HPM_P2
2022/02/02 00:02:07;;;;;;;10.00;4.68;;;;;;;9.68;70.88;97109.44;4946469;28;20189;-83
2022/02/02 00:04:35;;;;;;;6.22;3.90;;;;;;;9.54;71.21;97109.00;4933295;28;20238;-84
2022/02/02 00:07:14;;;;;;;;;;;;;;;;;;;;;
2022/02/02 00:09:32;;;;;;;6.50;4.13;;;;;;;9.49;72.10;97110.72;4949372;28;20445;-82
2022/02/02 00:14:38;;;;;;;10.15;4.95;;;;;;;9.68;71.21;97103.44;4965474;28;20200;-81
2022/02/02 00:17:11;;;;;;;6.57;4.70;;;;;;;9.70;71.20;97122.19;4949502;28;20204;-82
2022/02/02 00:19:45;;;;;;;7.60;4.38;;;;;;;9.66;71.00;97132.25;4948498;28;20272;-82
2022/02/02 00:22:18;;;;;;;10.43;4.97;;;;;;;9.53;71.81;97123.00;4946586;28;20701;-82
2022/02/02 00:27:14;;;;;;;10.73;6.45;;;;;;;9.66;71.56;97110.69;4960183;28;20191;-81
2022/02/02 00:29:46;;;;;;;9.52;4.95;;;;;;;9.67;70.95;97109.66;4950601;28;20253;-82
2022/02/02 00:32:32;;;;;;;10.32;4.50;;;;;;;9.74;70.99;97105.84;4966106;28;20213;-82
2022/02/02 00:34:57;;;;;;;10.48;4.25;;;;;;;9.73;70.87;97113.91;4949023;28;20166;-81
2022/02/02 00:37:23;;;;;;;9.35;4.65;;;;;;;9.77;70.60;97128.00;4949424;28;20268;-82
2022/02/02 00:39:51;;;;;;;8.02;4.15;;;;;;;9.72;70.03;97114.94;4948744;28;20326;-82
2022/02/02 00:42:17;;;;;;;7.38;3.63;;;;;;;9.79;70.50;97120.75;4946557;28;20174;-82
2022/02/02 00:44:47;;;;;;;10.52;4.35;;;;;;;9.73;69.73;97134.69;4940801;28;20645;-83
2022/02/02 00:47:20;;;;;;;8.18;3.78;;;;;;;9.74;70.00;97133.69;4931749;28;20208;-82
2022/02/02 00:49:47;;;;;;;10.40;4.32;;;;;;;9.72;70.64;97126.13;4966098;28;20701;-82
2022/02/02 00:52:14;;;;;;;9.57;4.00;;;;;;;9.64;70.40;97118.72;4934332;28;20200;-81
2022/02/02 00:54:39;;;;;;;10.02;3.85;;;;;;;9.73;69.97;97117.31;4932501;28;20234;-82
2022/02/02 00:57:08;;;;;;;8.48;3.75;;;;;;;9.79;70.18;97122.56;4934454;28;20405;-82
2022/02/02 00:59:33;;;;;;;11.70;3.80;;;;;;;9.57;69.92;97129.28;4916444;28;20184;-82
2022/02/02 01:01:59;;;;;;;10.15;3.72;;;;;;;9.61;70.14;97123.63;4929726;28;20201;-83
2022/02/02 01:04:26;;;;;;;10.18;3.70;;;;;;;9.70;69.25;97124.81;4949110;28;20670;-83
2022/02/02 01:07:16;;;;;;;10.52;3.83;;;;;;;9.74;69.58;97123.28;4944928;28;20406;-82
2022/02/02 01:09:54;;;;;;;6.03;3.17;;;;;;;9.74;69.90;97103.25;4947346;28;20649;-83
2022/02/02 01:28:21;;;;;;;6.65;2.95;;;;;;;9.74;68.64;97129.25;4953599;28;20177;-83
2022/02/02 01:30:46;;;;;;;7.97;3.10;;;;;;;9.75;69.19;97136.03;4948424;28;20264;-83
2022/02/02 01:33:15;;;;;;;11.68;3.67;;;;;;;9.57;68.40;97137.09;4935046;28;20317;-83
2022/02/02 01:35:40;;;;;;;12.85;3.22;;;;;;;9.69;68.62;97138.81;4932706;28;20102;-83
2022/02/02 01:38:06;;;;;;;8.98;3.50;;;;;;;9.65;69.38;97141.09;4948495;28;20199;-83
2022/02/02 01:40:39;;;;;;;9.05;3.25;;;;;;;9.57;69.10;97131.88;4952155;28;20273;-83
2022/02/02 01:43:19;;;;;;;9.05;3.17;;;;;;;9.49;69.19;97141.91;4935075;28;20713;-83
2022/02/02 01:45:56;;;;;;;9.00;3.95;;;;;;;9.52;69.75;97144.81;4931759;28;20216;-84
2022/02/02 01:55:47;;;;;;;15.10;3.00;;;;;;;9.45;68.20;97159.00;4952981;28;20208;-83
2022/02/02 02:00:41;;;;;;;11.43;3.22;;;;;;;9.40;69.38;97162.31;4956565;28;20181;-83
2022/02/02 02:03:06;;;;;;;11.13;3.70;;;;;;;9.35;67.99;97159.63;4968135;28;20212;-83
2022/02/02 02:05:32;;;;;;;7.78;3.28;;;;;;;9.26;68.44;97156.63;4968992;28;20111;-84
2022/02/02 02:07:57;;;;;;;9.18;3.30;;;;;;;9.40;68.95;97143.34;4952393;28;20180;-83
2022/02/02 02:10:25;;;;;;;12.93;3.47;;;;;;;9.30;68.35;97143.97;4936888;28;20252;-83
2022/02/02 02:13:02;;;;;;;7.60;2.95;;;;;;;9.41;68.70;97148.28;4951582;28;20161;-84
2022/02/02 02:15:30;;;;;;;11.27;4.97;;;;;;;9.52;66.96;97157.81;4969234;28;20373;-83
2022/02/02 02:17:57;;;;;;;7.30;2.88;;;;;;;9.42;68.30;97152.44;4953273;28;20219;-85
2022/02/02 02:20:22;;;;;;;10.20;2.85;;;;;;;9.44;68.52;97152.22;4936204;28;20197;-84
2022/02/02 02:22:48;;;;;;;10.35;2.95;;;;;;;9.40;68.36;97149.31;4942534;28;20578;-84
2022/02/02 02:25:22;;;;;;;10.23;3.72;;;;;;;9.26;68.67;97146.25;4965194;28;20169;-84
2022/02/02 02:27:47;;;;;;;12.70;2.90;;;;;;;9.35;68.55;97131.81;4964683;28;20275;-83
2022/02/02 02:31:00;;;;;;;11.38;3.45;;;;;;;9.49;67.11;97145.31;4962972;28;20708;-85
2022/02/02 02:35:55;;;;;;;13.18;3.35;;;;;;;9.51;67.12;97150.25;4968213;28;20278;-83
2022/02/02 02:57:23;;;;;;;8.98;3.05;;;;;;;9.37;68.16;97154.97;4952468;28;20258;-84
2022/02/02 03:30:10;;;;;;;12.63;3.22;;;;;;;9.51;68.15;97174.44;4951902;28;20705;-83
2022/02/02 03:54:02;;;;;;;12.35;3.67;;;;;;;9.35;67.97;97175.22;4952377;28;20244;-83
2022/02/02 04:06:55;;;;;;;13.75;3.85;;;;;;;9.13;66.20;97178.53;4953208;28;20394;-82
2022/02/02 04:09:21;;;;;;;6.25;2.20;;;;;;;9.36;66.13;97179.41;4938711;28;20200;-83
2022/02/02 04:12:06;;;;;;;9.45;3.00;;;;;;;9.50;65.98;97175.44;4936486;28;20157;-82
2022/02/02 05:00:20;;;;;;;;;;;;;;;;;;;;;
2022/02/02 05:42:50;;;;;;;6.85;1.73;;;;;;;9.38;64.30;97214.50;4971203;28;20688;-82
2022/02/02 05:51:14;;;;;;;8.68;2.03;;;;;;;9.12;65.26;97220.31;4952421;28;20296;-83
2022/02/02 05:53:06;;;;;;;5.00;2.17;;;;;;;9.21;65.28;97226.69;4962663;28;20702;-82
2022/02/02 05:55:38;;;;;;;12.07;2.63;;;;;;;9.08;65.49;97224.38;4968824;28;20254;-83
2022/02/02 05:58:06;;;;;;;11.45;2.63;;;;;;;9.04;65.71;97223.28;4932594;28;20595;-83
2022/02/02 06:00:35;;;;;;;7.85;1.88;;;;;;;9.12;65.36;97226.28;4948042;28;20278;-82
2022/02/02 06:03:02;;;;;;;13.52;2.67;;;;;;;9.29;65.06;97222.94;4933692;28;20642;-82
2022/02/02 06:05:31;;;;;;;9.05;2.58;;;;;;;9.21;65.39;97224.09;4935594;28;20268;-83
2022/02/02 06:07:57;;;;;;;11.35;2.90;;;;;;;8.95;65.89;97215.84;4933232;28;20194;-84
2022/02/02 06:10:24;;;;;;;9.20;2.53;;;;;;;9.13;65.28;97233.06;4937042;28;20225;-83
2022/02/02 06:12:51;;;;;;;6.97;2.42;;;;;;;9.13;64.80;97242.66;4953167;28;20370;-83
2022/02/02 06:15:18;;;;;;;9.00;2.53;;;;;;;9.12;65.00;97257.47;4960502;28;20186;-83
2022/02/02 06:17:53;;;;;;;8.88;2.15;;;;;;;9.17;64.63;97265.34;4956426;28;20267;-83
2022/02/02 06:20:20;;;;;;;11.00;3.45;;;;;;;9.03;65.06;97264.06;4938186;28;20864;-84
2022/02/02 06:22:59;;;;;;;8.27;2.20;;;;;;;8.99;64.51;97273.31;4936791;28;20652;-83
2022/02/02 06:25:31;;;;;;;10.32;3.50;;;;;;;9.16;64.35;97271.53;4926309;28;20589;-83
2022/02/02 06:28:05;;;;;;;10.25;3.00;;;;;;;9.03;64.43;97271.84;4947002;28;20287;-82
2022/02/02 06:30:32;;;;;;;8.38;2.22;;;;;;;9.06;64.00;97273.97;4936212;28;20255;-83
2022/02/02 06:33:02;;;;;;;10.80;2.67;;;;;;;9.23;63.61;97284.41;4969947;28;20204;-82
2022/02/02 06:35:29;;;;;;;10.98;2.42;;;;;;;9.31;63.44;97285.84;4968502;28;20236;-83
2022/02/02 06:37:54;;;;;;;10.27;2.28;;;;;;;9.25;63.64;97290.16;4953455;28;20244;-83
2022/02/02 06:40:20;;;;;;;15.05;3.50;;;;;;;9.42;62.92;97285.00;4936420;28;20294;-83
2022/02/02 06:42:45;;;;;;;7.90;2.17;;;;;;;9.37;63.81;97298.69;4968925;28;20203;-82
2022/02/02 06:45:12;;;;;;;10.45;3.10;;;;;;;9.46;63.19;97304.31;4937916;28;20282;-82
2022/02/02 06:47:39;;;;;;;9.65;2.58;;;;;;;9.44;63.29;97306.34;4953343;28;20216;-83
2022/02/02 06:50:17;;;;;;;10.38;1.80;;;;;;;9.42;63.80;97313.56;4968388;28;20274;-83
2022/02/02 06:52:56;;;;;;;12.73;2.83;;;;;;;9.35;63.54;97329.31;4949258;28;20587;-83
2022/02/02 06:55:29;;;;;;;11.05;2.22;;;;;;;9.36;63.53;97330.13;4947194;28;20212;-83
2022/02/02 06:58:19;;;;;;;9.07;1.95;;;;;;;9.29;63.94;97334.66;4951359;28;20195;-83
2022/02/02 07:03:32;;;;;;;23.50;4.07;;;;;;;9.28;64.13;97344.25;4969064;28;20563;-83
2022/02/02 07:11:12;;;;;;;11.88;2.42;;;;;;;9.09;64.59;97346.22;4967428;28;20135;-82
2022/02/02 07:29:17;;;;;;;11.02;2.65;;;;;;;9.45;62.86;97370.28;4937961;28;20753;-81
2022/02/02 07:31:54;;;;;;;11.43;3.22;;;;;;;9.30;63.28;97378.56;4962487;28;20253;-82
2022/02/02 07:34:49;;;;;;;9.27;2.40;;;;;;;9.44;62.46;97380.91;4934059;28;20712;-81
2022/02/02 07:37:26;;;;;;;13.37;3.50;;;;;;;9.55;62.33;97364.50;4970147;28;20291;-82
2022/02/02 07:39:55;;;;;;;13.48;3.67;;;;;;;9.54;62.66;97368.91;4933275;28;20234;-81
2022/02/02 07:42:20;;;;;;;11.77;2.17;;;;;;;9.59;62.43;97373.41;4966147;28;20687;-81
2022/02/02 07:44:47;;;;;;;10.52;3.13;;;;;;;9.52;63.09;97359.75;4949920;28;20161;-82
2022/02/02 07:47:14;;;;;;;14.63;2.53;;;;;;;9.49;63.24;97358.44;4968195;28;20277;-81
2022/02/02 07:49:46;;;;;;;10.23;3.25;;;;;;;9.45;62.96;97365.09;4950689;28;20242;-81
2022/02/02 07:52:13;;;;;;;13.23;3.47;;;;;;;9.55;63.14;97373.06;4949138;28;20647;-82
2022/02/02 07:54:41;;;;;;;9.43;2.70;;;;;;;9.44;63.38;97365.31;4950069;28;20205;-82
2022/02/02 07:57:15;;;;;;;11.80;3.17;;;;;;;9.52;63.63;97381.34;4951024;28;20372;-81
2022/02/02 08:02:07;;;;;;;10.77;3.83;;;;;;;9.47;63.53;97388.25;4965973;28;20194;-81
2022/02/02 08:04:33;;;;;;;11.02;2.80;;;;;;;9.33;63.48;97387.75;4948387;28;20251;-82
2022/02/02 08:06:59;;;;;;;14.07;2.88;;;;;;;9.50;63.09;97393.78;4947051;28;20185;-81
2022/02/02 08:11:52;;;;;;;14.98;3.63;;;;;;;9.56;62.76;97390.25;4966601;28;20189;-81
2022/02/02 08:14:17;;;;;;;12.10;3.03;;;;;;;9.66;62.87;97381.06;4950300;28;20654;-82
2022/02/02 08:16:43;;;;;;;9.13;2.70;;;;;;;9.63;62.80;97381.53;4966610;28;20192;-81
2022/02/02 08:19:08;;;;;;;14.93;3.50;;;;;;;9.56;63.06;97384.25;4965397;28;20294;-81
2022/02/02 08:21:34;;;;;;;12.13;3.13;;;;;;;9.71;63.09;97392.34;4965944;28;20404;-82
2022/02/02 08:23:59;;;;;;;15.15;2.72;;;;;;;9.79;63.05;97396.38;4967187;28;20300;-82
2022/02/02 08:26:25;;;;;;;6.43;3.28;;;;;;;9.64;63.29;97393.50;4950247;28;20250;-82
2022/02/02 08:28:52;;;;;;;10.18;2.92;;;;;;;9.76;62.99;97402.03;4949400;28;20267;-82
2022/02/02 08:31:18;;;;;;;8.90;3.28;;;;;;;9.61;62.83;97409.56;4967750;28;20759;-82
2022/02/02 08:33:47;;;;;;;14.25;3.03;;;;;;;9.72;62.88;97408.75;4933709;28;20198;-82
2022/02/02 08:36:16;;;;;;;10.13;3.15;;;;;;;9.73;62.75;97403.31;4949449;28;20684;-82
2022/02/02 08:38:57;;;;;;;13.85;3.08;;;;;;;9.88;62.51;97396.78;4949639;28;20075;-82
2022/02/02 08:41:37;;;;;;;12.52;3.40;;;;;;;9.94;62.91;97394.03;4933104;28;20280;-82
2022/02/02 08:44:13;;;;;;;11.95;3.10;;;;;;;9.86;62.84;97397.03;4933720;28;20165;-82
2022/02/02 08:46:43;;;;;;;12.85;3.35;;;;;;;9.99;61.98;97405.53;4927945;28;20169;-82
2022/02/02 08:49:12;;;;;;;13.40;3.20;;;;;;;9.87;62.97;97403.81;4950010;28;20673;-82
2022/02/02 08:51:41;;;;;;;12.45;3.65;;;;;;;9.77;62.50;97398.44;4949924;28;20431;-83
2022/02/02 08:54:18;;;;;;;12.23;3.10;;;;;;;9.85;62.10;97399.84;4933259;28;20193;-82
2022/02/02 08:59:37;;;;;;;10.40;3.00;;;;;;;10.12;61.74;97387.03;4959352;28;20304;-82
2022/02/02 09:02:07;;;;;;;13.23;3.13;;;;;;;10.16;61.34;97390.78;4933389;28;20368;-82
2022/02/02 09:07:16;;;;;;;10.75;2.63;;;;;;;9.86;61.36;97404.03;4968965;28;20650;-82
2022/02/02 09:09:54;;;;;;;12.93;3.10;;;;;;;10.22;60.86;97399.44;4928678;28;20237;-82
2022/02/02 09:31:44;;;;;;;18.00;3.13;;;;;;;10.48;59.55;97419.63;4966456;28;20290;-82
2022/02/02 09:34:12;;;;;;;11.18;3.00;;;;;;;10.48;59.28;97434.47;4948217;28;20272;-82
2022/02/02 09:36:41;;;;;;;12.65;2.90;;;;;;;10.04;60.50;97432.47;4967398;28;20275;-84
2022/02/02 09:39:18;;;;;;;10.50;3.15;;;;;;;10.05;60.20;97435.84;4933352;28;20193;-82
2022/02/02 09:42:00;;;;;;;13.63;3.40;;;;;;;10.17;59.83;97449.56;4933069;28;20247;-82
2022/02/02 09:44:32;;;;;;;12.05;2.40;;;;;;;10.06;60.03;97458.25;4952738;28;20274;-82
2022/02/02 09:47:22;;;;;;;9.80;3.35;;;;;;;10.35;59.65;97460.81;4965203;28;20191;-83
2022/02/02 09:50:02;;;;;;;10.57;3.97;;;;;;;10.27;60.08;97464.56;4948279;28;20196;-82
2022/02/02 09:52:35;;;;;;;11.95;3.72;;;;;;;10.31;60.01;97478.69;4972038;28;20169;-82
2022/02/02 09:55:17;;;;;;;14.02;3.60;;;;;;;10.41;60.23;97480.72;4945828;28;20212;-80
2022/02/02 10:01:05;;;;;;;11.10;3.05;;;;;;;10.59;59.29;97493.50;4963586;28;20110;-81
2022/02/02 10:03:21;;;;;;;11.07;2.95;;;;;;;10.68;59.83;97502.50;4940780;28;20216;-81
2022/02/02 10:06:20;;;;;;;11.50;3.40;;;;;;;10.40;59.68;97505.97;4953225;28;20704;-81
2022/02/02 10:14:30;;;;;;;14.02;3.47;;;;;;;10.49;59.88;97509.75;4963634;28;20279;-81
2022/02/02 10:16:56;;;;;;;12.23;3.10;;;;;;;10.73;59.69;97514.00;4951729;28;20336;-82
2022/02/02 10:19:32;;;;;;;8.40;3.15;;;;;;;10.44;60.07;97508.88;4969568;28;20369;-81
2022/02/02 10:21:58;;;;;;;11.63;3.20;;;;;;;10.64;59.38;97506.63;4955177;28;20195;-82
2022/02/02 10:24:47;;;;;;;13.93;2.97;;;;;;;10.28;60.30;97513.78;4945135;28;20357;-82
2022/02/02 10:27:22;;;;;;;9.88;2.63;;;;;;;10.43;60.10;97505.47;4953783;28;20196;-82
2022/02/02 10:29:49;;;;;;;12.90;3.20;;;;;;;10.51;60.27;97525.13;4953959;28;20240;-81
2022/02/02 10:32:35;;;;;;;11.48;3.42;;;;;;;10.39;60.32;97522.59;4947410;28;20694;-81
2022/02/02 10:35:00;;;;;;;14.18;3.20;;;;;;;10.43;59.75;97525.50;4955646;28;20641;-82
2022/02/02 10:37:30;;;;;;;13.10;3.00;;;;;;;10.52;60.15;97521.53;4953635;28;20087;-83
2022/02/02 10:39:55;;;;;;;11.27;3.53;;;;;;;10.65;59.89;97523.78;4952502;28;20173;-82
2022/02/02 10:42:33;;;;;;;17.88;4.03;;;;;;;10.40;60.37;97531.19;4937916;28;20817;-81
2022/02/02 10:45:15;;;;;;;11.80;2.97;;;;;;;10.44;60.61;97527.09;4971195;28;20166;-85
2022/02/02 10:47:42;;;;;;;7.72;3.00;;;;;;;10.81;60.02;97537.06;4934759;28;20255;-85
2022/02/02 10:50:46;;;;;;;12.40;2.53;;;;;;;10.64;59.93;97530.03;4967186;28;20105;-84
2022/02/02 10:56:01;;;;;;;;;;;;;;;;;;;;;
2022/02/02 10:59:04;;;;;;;13.63;3.20;;;;;;;10.84;59.98;97536.59;4950581;28;20200;-84
2022/02/02 11:06:40;;;;;;;9.25;3.45;;;;;;;10.93;59.78;97531.78;4967446;28;20196;-84
2022/02/02 11:09:11;;;;;;;11.10;3.30;;;;;;;10.95;59.13;97529.72;4930290;28;20197;-84
2022/02/02 11:11:48;;;;;;;11.25;3.50;;;;;;;10.83;59.35;97524.59;4943063;28;20647;-84
2022/02/02 11:14:23;;;;;;;10.45;3.25;;;;;;;10.76;59.34;97526.56;4944958;28;20197;-84
2022/02/02 11:16:53;;;;;;;13.45;3.80;;;;;;;10.90;59.29;97530.44;4934580;28;20208;-84
2022/02/02 11:19:20;;;;;;;9.77;3.10;;;;;;;10.89;59.38;97523.66;4946818;28;20243;-84
2022/02/02 11:21:46;;;;;;;13.02;3.85;;;;;;;10.94;58.98;97523.72;4948548;28;20055;-84
2022/02/02 11:24:16;;;;;;;13.85;3.25;;;;;;;10.83;59.77;97516.78;4947249;28;20207;-85
2022/02/02 11:26:46;;;;;;;11.82;2.60;;;;;;;10.84;59.93;97513.16;4934351;28;20275;-85
2022/02/02 11:29:40;;;;;;;13.40;3.25;;;;;;;10.66;59.76;97519.41;4950131;28;20315;-85
2022/02/02 11:32:11;;;;;;;11.57;3.20;;;;;;;10.74;59.94;97521.59;4967030;28;20243;-84
2022/02/02 11:34:40;;;;;;;12.68;3.15;;;;;;;10.91;59.65;97523.41;4950167;28;20192;-84
2022/02/02 11:37:07;;;;;;;11.02;2.85;;;;;;;10.82;60.37;97528.25;4947942;28;20177;-84
2022/02/02 11:39:39;;;;;;;12.45;3.20;;;;;;;10.85;60.19;97541.56;4966274;28;20215;-84
2022/02/02 11:42:14;;;;;;;10.27;3.45;;;;;;;10.59;61.68;97542.97;4928822;28;20208;-85
2022/02/02 11:45:13;;;;;;;13.25;3.15;;;;;;;10.77;61.01;97547.16;4951810;28;20715;-84
2022/02/02 11:47:48;;;;;;;8.27;3.65;;;;;;;10.32;62.20;97552.41;4951144;28;20701;-84
2022/02/02 11:50:16;;;;;;;12.63;2.75;;;;;;;10.76;61.79;97542.19;4944298;28;20278;-84
2022/02/02 11:52:44;;;;;;;10.93;2.88;;;;;;;10.80;61.56;97549.31;4949405;28;20188;-83
2022/02/02 11:55:12;;;;;;;13.57;3.63;;;;;;;10.49;62.50;97551.41;4951033;28;20592;-83
2022/02/02 11:58:15;;;;;;;9.40;2.92;;;;;;;10.50;62.75;97552.19;4934240;28;20715;-84
2022/02/02 12:01:21;;;;;;;10.98;3.40;;;;;;;10.43;62.60;97546.34;4964182;28;20721;-84
2022/02/02 12:04:03;;;;;;;12.98;3.22;;;;;;;10.75;62.24;97553.66;4949395;28;20201;-85
2022/02/02 12:06:41;;;;;;;10.70;3.08;;;;;;;10.86;62.37;97550.97;4929381;28;20281;-84
2022/02/02 12:09:17;;;;;;;8.95;3.40;;;;;;;10.89;61.98;97554.13;4932907;28;20193;-84
2022/02/02 13:00:25;;;;;;;6.75;2.20;;;;;;;10.65;63.74;97601.13;4965275;28;20170;-82
2022/02/02 13:02:51;;;;;;;8.03;2.30;;;;;;;10.68;63.36;97600.69;4947764;28;20341;-81
2022/02/02 13:05:23;;;;;;;6.07;2.50;;;;;;;10.54;63.90;97600.19;4948060;28;20212;-82
2022/02/02 13:07:52;;;;;;;7.07;2.72;;;;;;;10.72;63.78;97598.41;4931522;28;20702;-81
2022/02/02 13:10:22;;;;;;;4.55;1.98;;;;;;;10.58;64.35;97601.28;4964830;28;20260;-81
2022/02/02 13:12:54;;;;;;;7.68;2.35;;;;;;;10.59;64.53;97607.25;4965161;28;20173;-81
2022/02/02 13:16:05;;;;;;;7.65;1.95;;;;;;;10.43;64.78;97608.81;4931523;28;20195;-81
2022/02/02 13:25:55;;;;;;;6.68;2.00;;;;;;;10.46;65.46;97616.94;4963906;28;20165;-83
2022/02/02 13:28:58;;;;;;;8.18;2.47;;;;;;;10.24;66.12;97614.16;4932398;28;20188;-82
2022/02/02 13:37:35;;;;;;;7.10;2.60;;;;;;;10.32;66.22;97623.47;4967552;28;20383;-81
2022/02/02 13:48:12;;;;;;;;;;;;;;;;;;;;;
2022/02/02 13:53:39;;;;;;;6.60;2.67;;;;;;;10.51;65.57;97641.50;4952430;28;20166;-82
2022/02/02 14:33:25;;;;;;;3.63;1.90;;;;;;;10.51;66.79;97663.13;4936638;28;20230;-82
2022/02/02 14:35:54;;;;;;;5.75;2.25;;;;;;;10.48;67.17;97674.00;4930429;28;20190;-82
2022/02/02 14:38:19;;;;;;;4.35;1.70;;;;;;;10.53;66.83;97668.88;4915070;28;20230;-81
2022/02/02 14:43:27;;;;;;;5.32;1.92;;;;;;;10.51;67.82;97668.31;4934348;28;20296;-82
2022/02/02 14:45:56;;;;;;;6.78;2.42;;;;;;;10.49;67.68;97662.56;4944995;28;20287;-82
2022/02/02 14:48:30;;;;;;;5.07;1.67;;;;;;;10.53;67.80;97660.28;4936028;28;20239;-82
2022/02/02 14:53:40;;;;;;;5.30;1.88;;;;;;;10.65;67.77;97672.22;4949595;28;20296;-82
2022/02/02 15:07:58;;;;;;;4.53;1.80;;;;;;;10.72;68.00;97672.09;4960122;28;20237;-82
2022/02/02 15:09:42;;;;;;;4.60;1.67;;;;;;;10.76;67.98;97682.84;4949672;28;20213;-81
2022/02/02 15:28:16;;;;;;;1.65;1.15;;;;;;;10.68;67.49;97690.00;4951657;28;20329;-82
2022/02/02 15:30:51;;;;;;;3.83;1.48;;;;;;;10.74;68.03;97697.91;4950659;28;20671;-82
2022/02/02 15:33:24;;;;;;;3.88;1.70;;;;;;;10.80;67.70;97707.41;4947665;28;20255;-82
2022/02/02 15:35:57;;;;;;;1.65;0.98;;;;;;;10.68;68.15;97710.06;4949792;28;20165;-82
2022/02/02 15:38:26;;;;;;;2.08;1.80;;;;;;;10.68;67.98;97710.84;4919470;28;20654;-82
2022/02/02 15:40:58;;;;;;;3.67;1.73;;;;;;;10.67;68.01;97704.03;4966278;28;20713;-83
2022/02/02 16:02:21;;;;;;;11.73;6.20;;;;;;;10.70;68.58;97722.84;4964056;28;20264;-82
2022/02/02 16:04:47;;;;;;;2.65;1.88;;;;;;;10.70;68.69;97718.41;4949158;28;20177;-82
2022/02/02 16:07:23;;;;;;;3.55;1.45;;;;;;;10.78;68.48;97725.06;4920343;28;20207;-83
2022/02/02 16:09:54;;;;;;;2.22;1.40;;;;;;;10.68;68.37;97721.25;4922722;28;20285;-83
2022/02/02 16:12:37;;;;;;;3.65;1.60;;;;;;;10.70;68.83;97726.22;4950055;28;20165;-82
2022/02/02 16:15:16;;;;;;;3.50;1.63;;;;;;;10.72;68.60;97720.81;4967891;28;20102;-82
2022/02/02 16:36:13;;;;;;;4.35;1.50;;;;;;;10.67;68.51;97724.88;4957985;28;20275;-82
2022/02/02 16:38:50;;;;;;;;;;;;;;;10.43;69.25;97733.75;4932352;28;20247;-81
2022/02/02 16:43:10;;;;;;;1.63;1.20;;;;;;;10.55;69.24;97731.13;4933712;28;20136;-82
2022/02/02 16:44:00;;;;;;;2.72;1.60;;;;;;;10.50;69.12;97734.44;4962852;28;20290;-83
2022/02/02 16:46:26;;;;;;;2.58;1.25;;;;;;;10.40;69.08;97736.81;4945860;28;20632;-83
2022/02/02 16:48:51;;;;;;;2.85;1.00;;;;;;;10.46;68.88;97738.53;4925976;28;20678;-83
2022/02/02 16:51:16;;;;;;;3.08;1.73;;;;;;;10.48;68.70;97741.69;4918692;28;20247;-82
2022/02/02 16:53:47;;;;;;;2.63;1.75;;;;;;;10.49;68.56;97748.47;4916906;28;20228;-82
2022/02/02 16:56:30;;;;;;;1.50;1.00;;;;;;;10.44;68.88;97732.75;4954896;28;20199;-82
2022/02/02 17:31:58;;;;;;;2.20;1.42;;;;;;;9.78;69.40;97769.25;4965496;28;20651;-83
2022/02/02 17:34:38;;;;;;;;;;;;;;;;;;;;;
2022/02/02 17:37:09;;;;;;;2.70;1.85;;;;;;;9.73;69.47;97766.53;4966520;28;20210;-82
2022/02/02 17:39:52;;;;;;;2.53;1.40;;;;;;;9.72;69.61;97770.16;4938077;28;20165;-83
2022/02/02 18:19:29;;;;;;;3.88;2.30;;;;;;;10.04;69.54;97782.84;4950059;28;20204;-85
2022/02/02 18:21:54;;;;;;;3.35;2.50;;;;;;;10.05;69.67;97787.06;4949166;28;20666;-85
2022/02/02 18:27:01;;;;;;;3.80;2.22;;;;;;;10.04;70.36;97788.06;4962387;28;20338;-85
2022/02/02 18:34:46;;;;;;;4.88;2.55;;;;;;;10.10;69.67;97781.97;4942034;28;20443;-85
2022/02/02 18:50:12;;;;;;;5.00;3.28;;;;;;;10.22;69.85;97803.56;4963999;28;20223;-85
2022/02/02 18:55:28;;;;;;;4.50;3.50;;;;;;;10.19;69.86;97798.81;4944366;28;20642;-85
2022/02/02 19:00:53;;;;;;;7.30;4.72;;;;;;;10.14;70.36;97809.09;4964726;28;20235;-86
2022/02/02 19:06:40;;;;;;;6.20;3.92;;;;;;;10.22;70.24;97811.38;4964805;28;20184;-85
2022/02/02 19:15:33;;;;;;;4.13;3.17;;;;;;;10.26;70.14;97806.50;4896480;28;20168;-85
2022/02/02 19:31:36;;;;;;;5.25;4.20;;;;;;;10.32;69.91;97828.28;4958431;28;20261;-85
2022/02/02 20:07:00;;;;;;;8.98;6.32;;;;;;;10.48;70.06;97819.78;4945950;28;20220;-85
2022/02/02 20:11:41;;;;;;;8.48;5.95;;;;;;;10.34;70.48;97811.41;4910199;28;20110;-85
2022/02/02 20:14:07;;;;;;;13.02;7.47;;;;;;;10.42;70.54;97818.88;4930997;28;20204;-86
2022/02/02 20:16:33;;;;;;;12.85;7.40;;;;;;;10.48;70.55;97819.78;4943880;28;20333;-85
2022/02/02 20:19:01;;;;;;;12.32;7.40;;;;;;;10.43;70.35;97811.88;4947179;28;20274;-85
2022/02/02 20:21:31;;;;;;;10.95;7.03;;;;;;;10.44;70.30;97816.84;4967428;28;20290;-85
2022/02/02 20:23:58;;;;;;;11.02;7.07;;;;;;;10.45;70.64;97815.03;4944433;28;20247;-85
2022/02/02 20:26:27;;;;;;;12.60;8.45;;;;;;;10.44;70.97;97811.63;4961187;28;20200;-85
2022/02/02 20:28:52;;;;;;;11.27;6.53;;;;;;;10.46;70.94;97808.81;4927773;28;20177;-85
2022/02/02 20:31:18;;;;;;;11.30;6.80;;;;;;;10.46;70.86;97816.63;4945232;28;20208;-86
2022/02/02 20:33:43;;;;;;;12.48;7.80;;;;;;;10.46;70.85;97820.00;4943016;28;20203;-85
2022/02/02 20:36:09;;;;;;;12.10;8.82;;;;;;;10.44;70.75;97814.25;4946404;28;20716;-85
2022/02/02 20:38:35;;;;;;;15.68;8.25;;;;;;;10.39;70.65;97816.75;4946541;28;20234;-85
2022/02/02 20:41:01;;;;;;;10.23;7.40;;;;;;;10.41;70.99;97825.09;4912444;28;20230;-85
2022/02/02 20:43:32;;;;;;;11.73;8.13;;;;;;;10.41;70.67;97819.13;4927828;28;20287;-85
2022/02/02 21:10:21;;;;;;;13.82;8.82;;;;;;;10.60;71.01;97812.75;4965369;28;20028;-85
2022/02/02 21:15:32;;;;;;;14.15;8.32;;;;;;;10.65;70.73;97822.50;4981756;28;20037;-85
2022/02/02 21:18:06;;;;;;;12.07;7.70;;;;;;;10.67;70.63;97817.84;4964333;28;20117;-85
2022/02/02 21:20:40;;;;;;;12.35;8.30;;;;;;;10.72;70.47;97819.78;4979513;28;20085;-85
2022/02/02 21:23:13;;;;;;;13.02;8.27;;;;;;;10.80;70.35;97816.81;4960415;28;21017;-85
2022/02/02 21:26:11;;;;;;;10.27;6.75;;;;;;;10.77;70.39;97825.09;4942465;28;20064;-85
2022/02/02 21:28:31;;;;;;;11.38;8.02;;;;;;;10.78;70.29;97819.66;4945844;28;20033;-85
2022/02/02 21:30:57;;;;;;;11.52;7.13;;;;;;;10.87;70.66;97825.28;4965085;28;20037;-85
2022/02/02 21:33:22;;;;;;;11.07;7.80;;;;;;;10.84;70.71;97825.75;4947189;28;20737;-85
2022/02/02 21:35:50;;;;;;;11.25;7.07;;;;;;;10.79;70.65;97833.47;4948975;28;20172;-85
2022/02/02 21:38:21;;;;;;;10.75;7.80;;;;;;;10.75;70.65;97829.72;4947844;28;20033;-85
2022/02/02 21:40:52;;;;;;;10.25;6.82;;;;;;;10.75;70.50;97824.53;4957093;28;20369;-85
2022/02/02 21:43:18;;;;;;;11.07;7.47;;;;;;;10.75;70.76;97825.31;4964278;28;20028;-85
2022/02/02 21:45:44;;;;;;;9.25;6.57;;;;;;;10.84;70.88;97823.13;4956347;28;20032;-82
2022/02/02 21:48:09;;;;;;;9.40;6.85;;;;;;;10.81;70.28;97821.81;4934453;28;20294;-83
2022/02/02 21:50:48;;;;;;;9.35;6.85;;;;;;;10.88;70.49;97826.84;4943685;28;20197;-83
2022/02/02 21:53:14;;;;;;;7.30;5.85;;;;;;;10.84;70.32;97817.94;4926030;28;20203;-83
2022/02/02 21:55:39;;;;;;;10.57;6.85;;;;;;;10.86;70.66;97821.91;4967471;28;20217;-83
2022/02/02 21:58:05;;;;;;;8.02;7.05;;;;;;;10.90;70.56;97831.84;4931644;28;20245;-83
2022/02/02 22:00:30;;;;;;;8.23;6.80;;;;;;;10.89;70.57;97830.28;4953070;28;20560;-83
2022/02/02 22:02:56;;;;;;;9.25;6.60;;;;;;;10.94;70.57;97823.34;4937190;28;20671;-83
2022/02/02 22:05:21;;;;;;;9.45;7.00;;;;;;;10.97;70.29;97827.31;4948516;28;20379;-83
2022/02/02 22:07:47;;;;;;;9.50;6.63;;;;;;;10.99;70.61;97830.47;4950403;28;20212;-84
2022/02/02 22:10:12;;;;;;;10.10;7.88;;;;;;;10.97;70.60;97827.31;4943080;28;20211;-84
2022/02/02 22:12:39;;;;;;;8.98;6.32;;;;;;;10.97;70.70;97833.31;4918029;28;20651;-83
2022/02/02 22:15:11;;;;;;;10.57;6.93;;;;;;;10.86;70.68;97839.31;4934453;28;20717;-84
2022/02/02 22:17:37;;;;;;;9.40;7.25;;;;;;;11.00;69.93;97835.47;4933516;28;20258;-83
2022/02/02 22:20:06;;;;;;;9.45;6.60;;;;;;;11.04;70.56;97841.78;4950201;28;20361;-84
2022/02/02 22:22:32;;;;;;;9.93;7.50;;;;;;;11.01;70.61;97831.81;4918671;28;20298;-83
2022/02/02 22:24:58;;;;;;;8.90;6.57;;;;;;;11.04;70.21;97844.41;4952134;28;20697;-83
2022/02/02 22:27:23;;;;;;;10.50;6.45;;;;;;;10.98;70.33;97845.31;4930852;28;20271;-83
2022/02/02 22:29:48;;;;;;;11.20;7.47;;;;;;;11.02;70.57;97846.44;4924211;28;20274;-83
2022/02/02 22:32:14;;;;;;;10.63;6.90;;;;;;;11.09;70.27;97845.50;4957346;28;20608;-83
2022/02/02 22:34:39;;;;;;;9.60;6.72;;;;;;;11.09;70.52;97850.72;4931911;28;20187;-83
2022/02/02 22:37:05;;;;;;;8.18;6.20;;;;;;;11.05;70.35;97838.16;4946613;28;20710;-83